sensor_id;sensor_type;location;lat;lon;timestamp;pressure;altitude;pressure_sealevel;temperature;humidity
73105;BME280;61296;50.526;30.792;2022-08-04T00:14:12;99482.13;;;18.34;91.15
73105;BME280;61296;50.526;30.792;2022-08-04T00:29:32;99464.56;;;18.37;90.21
73105;BME280;61296;50.526;30.792;2022-08-04T01:00:41;99542.81;;;18.83;89.84
73105;BME280;61296;50.526;30.792;2022-08-04T01:16:04;99551.91;;;18.67;90.54
73105;BME280;61296;50.526;30.792;2022-08-04T01:47:02;99555.44;;;18.48;91.54
73105;BME280;61296;50.526;30.792;2022-08-04T02:02:22;99504.88;;;18.09;91.71
73105;BME280;61296;50.526;30.792;2022-08-04T02:17:45;99542.78;;;18.43;91.84
73105;BME280;61296;50.526;30.792;2022-08-04T02:33:12;99470.00;;;18.05;91.98
73105;BME280;61296;50.526;30.792;2022-08-04T02:48:36;99486.63;;;18.08;91.89
73105;BME280;61296;50.526;30.792;2022-08-04T03:19:55;99539.31;;;18.39;92.49
73105;BME280;61296;50.526;30.792;2022-08-04T03:35:39;99536.09;;;18.40;92.81
73105;BME280;61296;50.526;30.792;2022-08-04T04:39:02;99562.09;;;18.73;90.91
73105;BME280;61296;50.526;30.792;2022-08-04T04:54:42;99522.53;;;18.42;91.50
73105;BME280;61296;50.526;30.792;2022-08-04T05:10:11;99538.66;;;18.51;90.94
73105;BME280;61296;50.526;30.792;2022-08-04T05:25:50;99485.75;;;18.11;90.96
73105;BME280;61296;50.526;30.792;2022-08-04T05:41:12;99536.19;;;18.77;89.53
73105;BME280;61296;50.526;30.792;2022-08-04T05:56:32;99573.06;;;19.37;87.86
73105;BME280;61296;50.526;30.792;2022-08-04T06:11:56;99547.56;;;19.71;85.29
73105;BME280;61296;50.526;30.792;2022-08-04T06:27:18;99596.44;;;20.08;85.47
73105;BME280;61296;50.526;30.792;2022-08-04T06:42:38;99549.91;;;19.72;84.79
73105;BME280;61296;50.526;30.792;2022-08-04T06:57:58;99522.59;;;19.80;84.11
73105;BME280;61296;50.526;30.792;2022-08-04T07:13:20;99529.38;;;20.11;83.09
73105;BME280;61296;50.526;30.792;2022-08-04T07:28:40;99522.41;;;19.87;82.93
73105;BME280;61296;50.526;30.792;2022-08-04T07:44:00;99508.03;;;19.88;82.47
73105;BME280;61296;50.526;30.792;2022-08-04T07:59:20;99604.88;;;21.08;79.01
73105;BME280;61296;50.526;30.792;2022-08-04T08:14:39;99569.88;;;21.79;73.37
73105;BME280;61296;50.526;30.792;2022-08-04T08:29:58;99550.78;;;22.12;71.32
73105;BME280;61296;50.526;30.792;2022-08-04T09:17:04;99503.22;;;22.65;66.85
73105;BME280;61296;50.526;30.792;2022-08-04T09:32:43;99553.53;;;23.62;65.21
73105;BME280;61296;50.526;30.792;2022-08-04T09:48:33;99509.50;;;23.50;64.66
73105;BME280;61296;50.526;30.792;2022-08-04T10:04:02;99505.72;;;23.35;65.05
73105;BME280;61296;50.526;30.792;2022-08-04T10:19:29;99503.97;;;23.77;65.08
73105;BME280;61296;50.526;30.792;2022-08-04T10:35:09;99558.13;;;24.05;65.58
73105;BME280;61296;50.526;30.792;2022-08-04T10:50:30;99488.03;;;23.65;64.98
73105;BME280;61296;50.526;30.792;2022-08-04T11:05:54;99540.94;;;24.76;62.10
73105;BME280;61296;50.526;30.792;2022-08-04T11:21:26;99545.50;;;24.37;62.93
73105;BME280;61296;50.526;30.792;2022-08-04T11:52:18;99432.66;;;24.81;59.55
73105;BME280;61296;50.526;30.792;2022-08-04T12:23:36;99501.31;;;23.92;61.87
73105;BME280;61296;50.526;30.792;2022-08-04T12:39:10;99535.94;;;23.71;65.87
73105;BME280;61296;50.526;30.792;2022-08-04T12:54:32;99485.03;;;21.70;77.65
73105;BME280;61296;50.526;30.792;2022-08-04T13:09:55;99489.53;;;20.24;89.68
73105;BME280;61296;50.526;30.792;2022-08-04T13:25:16;99402.38;;;20.03;91.81
73105;BME280;61296;50.526;30.792;2022-08-04T13:40:36;99548.63;;;21.44;91.27
73105;BME280;61296;50.526;30.792;2022-08-04T13:55:59;99413.72;;;20.38;89.74
73105;BME280;61296;50.526;30.792;2022-08-04T14:26:58;99527.50;;;20.50;87.75
73105;BME280;61296;50.526;30.792;2022-08-04T14:42:18;99486.97;;;20.29;91.30
73105;BME280;61296;50.526;30.792;2022-08-04T14:57:37;99505.94;;;20.63;92.69
73105;BME280;61296;50.526;30.792;2022-08-04T15:12:57;99505.09;;;20.66;92.14
73105;BME280;61296;50.526;30.792;2022-08-04T15:28:19;99513.81;;;20.81;90.21
73105;BME280;61296;50.526;30.792;2022-08-04T15:59:09;99465.97;;;20.66;89.27
73105;BME280;61296;50.526;30.792;2022-08-04T16:14:31;99522.66;;;20.92;88.79
73105;BME280;61296;50.526;30.792;2022-08-04T16:30:02;99475.78;;;20.71;88.14
73105;BME280;61296;50.526;30.792;2022-08-04T16:45:38;99522.34;;;21.16;86.60
73105;BME280;61296;50.526;30.792;2022-08-04T17:01:04;99453.34;;;20.74;85.78
73105;BME280;61296;50.526;30.792;2022-08-04T17:16:27;99483.19;;;20.78;86.65
73105;BME280;61296;50.526;30.792;2022-08-04T17:31:47;99419.16;;;20.16;87.07
73105;BME280;61296;50.526;30.792;2022-08-04T17:47:07;99523.94;;;20.62;87.57
73105;BME280;61296;50.526;30.792;2022-08-04T18:02:34;99473.00;;;20.00;88.02
73105;BME280;61296;50.526;30.792;2022-08-04T18:17:56;99508.78;;;20.05;89.15
73105;BME280;61296;50.526;30.792;2022-08-04T18:33:15;99493.91;;;19.79;89.96
73105;BME280;61296;50.526;30.792;2022-08-04T18:48:34;99482.34;;;19.65;90.23
73105;BME280;61296;50.526;30.792;2022-08-04T19:03:53;99492.78;;;19.77;91.06
73105;BME280;61296;50.526;30.792;2022-08-04T19:19:13;99499.34;;;19.70;90.97
73105;BME280;61296;50.526;30.792;2022-08-04T19:34:33;99508.31;;;19.78;91.28
73105;BME280;61296;50.526;30.792;2022-08-04T19:49:52;99508.66;;;19.80;90.62
73105;BME280;61296;50.526;30.792;2022-08-04T20:05:13;99489.13;;;19.47;89.32
73105;BME280;61296;50.526;30.792;2022-08-04T20:20:33;99522.09;;;19.52;88.69
73105;BME280;61296;50.526;30.792;2022-08-04T20:35:52;99508.91;;;19.20;88.77
73105;BME280;61296;50.526;30.792;2022-08-04T20:51:16;99539.75;;;19.13;88.72
73105;BME280;61296;50.526;30.792;2022-08-04T21:06:38;99529.63;;;19.03;88.55
73105;BME280;61296;50.526;30.792;2022-08-04T21:21:57;99543.94;;;18.85;88.39
73105;BME280;61296;50.526;30.792;2022-08-04T21:37:17;99486.75;;;18.21;89.01
73105;BME280;61296;50.526;30.792;2022-08-04T21:52:36;99514.34;;;18.35;89.56
73105;BME280;61296;50.526;30.792;2022-08-04T22:07:56;99511.16;;;18.33;89.20
73105;BME280;61296;50.526;30.792;2022-08-04T22:23:15;99428.31;;;17.81;89.44
73105;BME280;61296;50.526;30.792;2022-08-04T22:38:34;99504.47;;;18.31;88.91
73105;BME280;61296;50.526;30.792;2022-08-04T22:53:54;99453.94;;;17.93;88.86
73105;BME280;61296;50.526;30.792;2022-08-04T23:09:13;99520.69;;;18.16;89.56
73105;BME280;61296;50.526;30.792;2022-08-04T23:24:32;99532.38;;;18.07;90.39
73105;BME280;61296;50.526;30.792;2022-08-04T23:39:51;99481.03;;;17.65;90.65
73105;BME280;61296;50.526;30.792;2022-08-04T23:55:10;99466.22;;;17.48;91.08
